sensor_id;sensor_type;location;lat;lon;timestamp;P1;durP1;ratioP1;P2;durP2;ratioP2
47089;SDS011;32840;52.516;13.294;2022-09-30T00:00:15;12.50;;;9.30;;
47089;SDS011;32840;52.516;13.294;2022-09-30T00:03:00;11.75;;;9.25;;
47089;SDS011;32840;52.516;13.294;2022-09-30T00:05:45;11.60;;;8.93;;
47089;SDS011;32840;52.516;13.294;2022-09-30T00:08:31;11.65;;;8.85;;
47089;SDS011;32840;52.516;13.294;2022-09-30T00:11:17;12.23;;;8.73;;
47089;SDS011;32840;52.516;13.294;2022-09-30T00:14:17;11.23;;;9.25;;
47089;SDS011;32840;52.516;13.294;2022-09-30T00:17:03;10.93;;;8.85;;
47089;SDS011;32840;52.516;13.294;2022-09-30T00:19:48;13.48;;;9.70;;
47089;SDS011;32840;52.516;13.294;2022-09-30T00:22:33;11.15;;;8.80;;
47089;SDS011;32840;52.516;13.294;2022-09-30T00:25:18;12.60;;;8.95;;
47089;SDS011;32840;52.516;13.294;2022-09-30T00:28:03;13.30;;;9.85;;
47089;SDS011;32840;52.516;13.294;2022-09-30T00:30:51;12.15;;;9.27;;
47089;SDS011;32840;52.516;13.294;2022-09-30T00:33:36;11.80;;;8.80;;
47089;SDS011;32840;52.516;13.294;2022-09-30T00:36:21;10.77;;;8.70;;
47089;SDS011;32840;52.516;13.294;2022-09-30T00:39:06;11.40;;;8.77;;
47089;SDS011;32840;52.516;13.294;2022-09-30T00:41:56;10.15;;;8.13;;
47089;SDS011;32840;52.516;13.294;2022-09-30T00:53:18;12.73;;;8.57;;
47089;SDS011;32840;52.516;13.294;2022-09-30T00:56:11;11.23;;;8.25;;
47089;SDS011;32840;52.516;13.294;2022-09-30T00:59:11;10.73;;;8.10;;
47089;SDS011;32840;52.516;13.294;2022-09-30T01:02:18;12.57;;;7.90;;
47089;SDS011;32840;52.516;13.294;2022-09-30T01:05:03;10.93;;;7.70;;
47089;SDS011;32840;52.516;13.294;2022-09-30T01:07:48;12.32;;;8.48;;
47089;SDS011;32840;52.516;13.294;2022-09-30T01:10:33;9.23;;;8.10;;
47089;SDS011;32840;52.516;13.294;2022-09-30T01:13:19;10.07;;;7.88;;
47089;SDS011;32840;52.516;13.294;2022-09-30T01:16:11;11.88;;;8.73;;
47089;SDS011;32840;52.516;13.294;2022-09-30T01:22:13;10.13;;;8.38;;
47089;SDS011;32840;52.516;13.294;2022-09-30T01:25:13;9.65;;;7.85;;
47089;SDS011;32840;52.516;13.294;2022-09-30T01:28:20;11.18;;;8.35;;
47089;SDS011;32840;52.516;13.294;2022-09-30T01:31:38;10.75;;;8.60;;
47089;SDS011;32840;52.516;13.294;2022-09-30T01:35:05;13.07;;;8.85;;
47089;SDS011;32840;52.516;13.294;2022-09-30T01:41:26;10.95;;;8.88;;
47089;SDS011;32840;52.516;13.294;2022-09-30T01:44:34;13.15;;;9.05;;
47089;SDS011;32840;52.516;13.294;2022-09-30T01:47:55;10.63;;;8.65;;
47089;SDS011;32840;52.516;13.294;2022-09-30T01:54:02;11.65;;;8.10;;
47089;SDS011;32840;52.516;13.294;2022-09-30T01:56:54;11.20;;;8.90;;
47089;SDS011;32840;52.516;13.294;2022-09-30T01:59:47;13.73;;;9.05;;
47089;SDS011;32840;52.516;13.294;2022-09-30T02:02:51;10.45;;;8.88;;
47089;SDS011;32840;52.516;13.294;2022-09-30T02:05:42;15.32;;;10.55;;
47089;SDS011;32840;52.516;13.294;2022-09-30T02:08:56;13.20;;;9.68;;
47089;SDS011;32840;52.516;13.294;2022-09-30T02:11:41;15.75;;;11.90;;
47089;SDS011;32840;52.516;13.294;2022-09-30T02:14:28;14.98;;;11.30;;
47089;SDS011;32840;52.516;13.294;2022-09-30T02:17:19;11.23;;;9.27;;
47089;SDS011;32840;52.516;13.294;2022-09-30T02:20:12;11.88;;;9.35;;
47089;SDS011;32840;52.516;13.294;2022-09-30T02:26:07;17.38;;;11.43;;
47089;SDS011;32840;52.516;13.294;2022-09-30T02:29:09;13.90;;;10.65;;
47089;SDS011;32840;52.516;13.294;2022-09-30T02:32:01;14.65;;;10.55;;
47089;SDS011;32840;52.516;13.294;2022-09-30T02:35:02;12.98;;;9.45;;
47089;SDS011;32840;52.516;13.294;2022-09-30T02:38:09;15.30;;;10.75;;
47089;SDS011;32840;52.516;13.294;2022-09-30T02:41:10;17.00;;;10.93;;
47089;SDS011;32840;52.516;13.294;2022-09-30T02:43:58;21.63;;;14.75;;
47089;SDS011;32840;52.516;13.294;2022-09-30T02:46:57;23.35;;;13.70;;
47089;SDS011;32840;52.516;13.294;2022-09-30T02:49:56;14.57;;;10.55;;
47089;SDS011;32840;52.516;13.294;2022-09-30T02:58:54;13.75;;;9.57;;
47089;SDS011;32840;52.516;13.294;2022-09-30T03:01:41;10.30;;;8.18;;
47089;SDS011;32840;52.516;13.294;2022-09-30T03:04:27;9.80;;;8.80;;
47089;SDS011;32840;52.516;13.294;2022-09-30T03:07:16;11.27;;;8.18;;
47089;SDS011;32840;52.516;13.294;2022-09-30T03:10:10;12.20;;;8.50;;
47089;SDS011;32840;52.516;13.294;2022-09-30T03:13:12;14.38;;;11.07;;
47089;SDS011;32840;52.516;13.294;2022-09-30T03:19:16;25.65;;;16.70;;
47089;SDS011;32840;52.516;13.294;2022-09-30T03:25:29;15.05;;;10.60;;
47089;SDS011;32840;52.516;13.294;2022-09-30T03:31:11;12.35;;;9.13;;
47089;SDS011;32840;52.516;13.294;2022-09-30T03:40:23;11.82;;;8.70;;
47089;SDS011;32840;52.516;13.294;2022-09-30T03:43:32;14.52;;;9.57;;
47089;SDS011;32840;52.516;13.294;2022-09-30T03:46:21;11.40;;;8.48;;
47089;SDS011;32840;52.516;13.294;2022-09-30T03:49:11;10.65;;;8.43;;
47089;SDS011;32840;52.516;13.294;2022-09-30T03:52:06;11.25;;;8.43;;
47089;SDS011;32840;52.516;13.294;2022-09-30T03:54:59;13.40;;;8.27;;
47089;SDS011;32840;52.516;13.294;2022-09-30T03:57:45;12.45;;;8.05;;
47089;SDS011;32840;52.516;13.294;2022-09-30T04:00:30;11.93;;;8.13;;
47089;SDS011;32840;52.516;13.294;2022-09-30T04:03:16;11.57;;;8.57;;
47089;SDS011;32840;52.516;13.294;2022-09-30T04:06:02;13.88;;;9.88;;
47089;SDS011;32840;52.516;13.294;2022-09-30T04:08:47;12.02;;;8.85;;
47089;SDS011;32840;52.516;13.294;2022-09-30T04:11:33;12.20;;;9.60;;
47089;SDS011;32840;52.516;13.294;2022-09-30T04:14:18;12.10;;;9.25;;
47089;SDS011;32840;52.516;13.294;2022-09-30T04:17:03;12.27;;;8.57;;
47089;SDS011;32840;52.516;13.294;2022-09-30T04:19:48;10.43;;;8.30;;
47089;SDS011;32840;52.516;13.294;2022-09-30T04:22:33;11.02;;;8.50;;
47089;SDS011;32840;52.516;13.294;2022-09-30T04:25:18;12.98;;;8.10;;
47089;SDS011;32840;52.516;13.294;2022-09-30T04:28:03;11.77;;;8.30;;
47089;SDS011;32840;52.516;13.294;2022-09-30T04:30:48;13.02;;;9.35;;
47089;SDS011;32840;52.516;13.294;2022-09-30T04:33:33;14.57;;;9.73;;
47089;SDS011;32840;52.516;13.294;2022-09-30T04:36:18;12.27;;;9.55;;
47089;SDS011;32840;52.516;13.294;2022-09-30T04:39:03;12.95;;;8.57;;
47089;SDS011;32840;52.516;13.294;2022-09-30T04:41:48;12.55;;;10.07;;
47089;SDS011;32840;52.516;13.294;2022-09-30T04:44:34;13.77;;;9.13;;
47089;SDS011;32840;52.516;13.294;2022-09-30T04:47:19;12.65;;;10.65;;
47089;SDS011;32840;52.516;13.294;2022-09-30T04:50:04;11.80;;;9.38;;
47089;SDS011;32840;52.516;13.294;2022-09-30T04:52:49;12.48;;;8.95;;
47089;SDS011;32840;52.516;13.294;2022-09-30T04:55:34;12.88;;;8.98;;
47089;SDS011;32840;52.516;13.294;2022-09-30T04:58:18;10.57;;;9.07;;
47089;SDS011;32840;52.516;13.294;2022-09-30T05:01:04;12.15;;;9.15;;
47089;SDS011;32840;52.516;13.294;2022-09-30T05:03:54;12.48;;;9.48;;
47089;SDS011;32840;52.516;13.294;2022-09-30T05:06:39;12.77;;;9.00;;
47089;SDS011;32840;52.516;13.294;2022-09-30T05:09:24;13.48;;;9.77;;
47089;SDS011;32840;52.516;13.294;2022-09-30T05:12:09;12.07;;;9.15;;
47089;SDS011;32840;52.516;13.294;2022-09-30T05:14:54;15.00;;;10.23;;
47089;SDS011;32840;52.516;13.294;2022-09-30T05:17:38;15.00;;;10.70;;
47089;SDS011;32840;52.516;13.294;2022-09-30T05:20:23;14.48;;;10.57;;
47089;SDS011;32840;52.516;13.294;2022-09-30T05:23:08;15.38;;;10.32;;
47089;SDS011;32840;52.516;13.294;2022-09-30T05:25:53;17.75;;;11.90;;
47089;SDS011;32840;52.516;13.294;2022-09-30T05:28:39;15.68;;;11.23;;
47089;SDS011;32840;52.516;13.294;2022-09-30T05:31:25;19.05;;;13.00;;
47089;SDS011;32840;52.516;13.294;2022-09-30T05:34:10;22.17;;;13.05;;
47089;SDS011;32840;52.516;13.294;2022-09-30T05:36:55;21.17;;;13.52;;
47089;SDS011;32840;52.516;13.294;2022-09-30T05:39:39;19.05;;;12.68;;
47089;SDS011;32840;52.516;13.294;2022-09-30T05:42:25;16.05;;;12.30;;
47089;SDS011;32840;52.516;13.294;2022-09-30T05:45:10;34.55;;;18.88;;
47089;SDS011;32840;52.516;13.294;2022-09-30T05:47:55;62.35;;;27.85;;
47089;SDS011;32840;52.516;13.294;2022-09-30T05:50:40;62.38;;;30.25;;
47089;SDS011;32840;52.516;13.294;2022-09-30T05:53:25;27.98;;;16.35;;
47089;SDS011;32840;52.516;13.294;2022-09-30T05:56:10;26.45;;;15.98;;
47089;SDS011;32840;52.516;13.294;2022-09-30T05:58:55;27.98;;;16.35;;
47089;SDS011;32840;52.516;13.294;2022-09-30T06:01:40;16.02;;;11.07;;
47089;SDS011;32840;52.516;13.294;2022-09-30T06:04:25;19.13;;;12.77;;
47089;SDS011;32840;52.516;13.294;2022-09-30T06:07:10;16.10;;;11.15;;
47089;SDS011;32840;52.516;13.294;2022-09-30T06:09:55;14.93;;;10.07;;
47089;SDS011;32840;52.516;13.294;2022-09-30T06:12:40;13.80;;;10.30;;
47089;SDS011;32840;52.516;13.294;2022-09-30T06:15:25;16.15;;;10.02;;
47089;SDS011;32840;52.516;13.294;2022-09-30T06:18:10;11.93;;;9.00;;
47089;SDS011;32840;52.516;13.294;2022-09-30T06:20:59;17.75;;;10.95;;
47089;SDS011;32840;52.516;13.294;2022-09-30T06:23:45;16.05;;;10.60;;
47089;SDS011;32840;52.516;13.294;2022-09-30T06:26:30;18.02;;;11.13;;
47089;SDS011;32840;52.516;13.294;2022-09-30T06:29:15;16.10;;;11.00;;
47089;SDS011;32840;52.516;13.294;2022-09-30T06:32:00;16.48;;;11.57;;
47089;SDS011;32840;52.516;13.294;2022-09-30T06:34:45;16.25;;;11.00;;
47089;SDS011;32840;52.516;13.294;2022-09-30T06:37:30;18.17;;;11.88;;
47089;SDS011;32840;52.516;13.294;2022-09-30T06:40:15;18.55;;;12.52;;
47089;SDS011;32840;52.516;13.294;2022-09-30T06:43:00;19.95;;;15.65;;
47089;SDS011;32840;52.516;13.294;2022-09-30T06:45:45;25.65;;;21.17;;
47089;SDS011;32840;52.516;13.294;2022-09-30T06:48:31;22.50;;;14.18;;
47089;SDS011;32840;52.516;13.294;2022-09-30T06:51:18;18.25;;;13.60;;
47089;SDS011;32840;52.516;13.294;2022-09-30T06:54:03;17.58;;;13.35;;
47089;SDS011;32840;52.516;13.294;2022-09-30T06:56:48;20.15;;;14.60;;
47089;SDS011;32840;52.516;13.294;2022-09-30T06:59:33;21.40;;;14.07;;
47089;SDS011;32840;52.516;13.294;2022-09-30T07:02:18;19.80;;;13.38;;
47089;SDS011;32840;52.516;13.294;2022-09-30T07:05:03;19.83;;;11.25;;
47089;SDS011;32840;52.516;13.294;2022-09-30T07:07:48;18.25;;;11.85;;
47089;SDS011;32840;52.516;13.294;2022-09-30T07:10:33;16.35;;;10.85;;
47089;SDS011;32840;52.516;13.294;2022-09-30T07:13:18;21.45;;;11.02;;
47089;SDS011;32840;52.516;13.294;2022-09-30T07:16:04;16.88;;;12.88;;
47089;SDS011;32840;52.516;13.294;2022-09-30T07:18:50;23.75;;;17.67;;
47089;SDS011;32840;52.516;13.294;2022-09-30T07:21:35;21.08;;;15.23;;
47089;SDS011;32840;52.516;13.294;2022-09-30T07:24:20;26.23;;;18.90;;
47089;SDS011;32840;52.516;13.294;2022-09-30T07:27:05;35.65;;;25.95;;
47089;SDS011;32840;52.516;13.294;2022-09-30T07:29:50;45.60;;;31.60;;
47089;SDS011;32840;52.516;13.294;2022-09-30T07:32:35;52.08;;;40.00;;
47089;SDS011;32840;52.516;13.294;2022-09-30T07:35:20;50.42;;;34.55;;
47089;SDS011;32840;52.516;13.294;2022-09-30T07:38:04;53.95;;;35.97;;
47089;SDS011;32840;52.516;13.294;2022-09-30T07:41:00;25.45;;;19.55;;
47089;SDS011;32840;52.516;13.294;2022-09-30T07:43:47;26.42;;;18.50;;
47089;SDS011;32840;52.516;13.294;2022-09-30T07:46:34;20.45;;;13.00;;
47089;SDS011;32840;52.516;13.294;2022-09-30T07:49:21;17.25;;;13.05;;
47089;SDS011;32840;52.516;13.294;2022-09-30T07:52:10;16.58;;;11.93;;
47089;SDS011;32840;52.516;13.294;2022-09-30T07:54:55;19.05;;;13.13;;
47089;SDS011;32840;52.516;13.294;2022-09-30T07:57:40;16.83;;;12.85;;
47089;SDS011;32840;52.516;13.294;2022-09-30T08:00:25;16.30;;;12.43;;
47089;SDS011;32840;52.516;13.294;2022-09-30T08:03:10;18.00;;;13.80;;
47089;SDS011;32840;52.516;13.294;2022-09-30T08:05:55;18.35;;;13.25;;
47089;SDS011;32840;52.516;13.294;2022-09-30T08:08:40;17.98;;;12.52;;
47089;SDS011;32840;52.516;13.294;2022-09-30T08:11:27;20.02;;;13.68;;
47089;SDS011;32840;52.516;13.294;2022-09-30T08:14:16;18.25;;;12.43;;
47089;SDS011;32840;52.516;13.294;2022-09-30T08:19:51;19.65;;;12.98;;
47089;SDS011;32840;52.516;13.294;2022-09-30T08:22:36;18.25;;;13.77;;
47089;SDS011;32840;52.516;13.294;2022-09-30T08:25:21;18.90;;;12.73;;
47089;SDS011;32840;52.516;13.294;2022-09-30T08:28:07;17.00;;;11.57;;
47089;SDS011;32840;52.516;13.294;2022-09-30T08:30:52;17.73;;;12.32;;
47089;SDS011;32840;52.516;13.294;2022-09-30T08:33:37;15.48;;;12.10;;
47089;SDS011;32840;52.516;13.294;2022-09-30T08:36:23;16.58;;;11.35;;
47089;SDS011;32840;52.516;13.294;2022-09-30T08:39:09;16.15;;;11.88;;
47089;SDS011;32840;52.516;13.294;2022-09-30T08:42:01;16.05;;;11.57;;
47089;SDS011;32840;52.516;13.294;2022-09-30T08:45:00;13.27;;;10.63;;
47089;SDS011;32840;52.516;13.294;2022-09-30T08:51:16;14.20;;;11.52;;
47089;SDS011;32840;52.516;13.294;2022-09-30T08:54:20;17.05;;;11.23;;
47089;SDS011;32840;52.516;13.294;2022-09-30T08:57:08;15.60;;;10.95;;
47089;SDS011;32840;52.516;13.294;2022-09-30T08:59:55;13.32;;;10.73;;
47089;SDS011;32840;52.516;13.294;2022-09-30T09:02:54;15.85;;;11.38;;
47089;SDS011;32840;52.516;13.294;2022-09-30T09:05:46;13.73;;;9.60;;
47089;SDS011;32840;52.516;13.294;2022-09-30T09:18:30;10.85;;;9.30;;
47089;SDS011;32840;52.516;13.294;2022-09-30T09:21:43;13.90;;;9.85;;
47089;SDS011;32840;52.516;13.294;2022-09-30T09:24:43;13.50;;;9.82;;
47089;SDS011;32840;52.516;13.294;2022-09-30T09:27:40;13.98;;;9.10;;
47089;SDS011;32840;52.516;13.294;2022-09-30T09:30:35;16.60;;;10.40;;
47089;SDS011;32840;52.516;13.294;2022-09-30T09:33:30;13.60;;;9.20;;
47089;SDS011;32840;52.516;13.294;2022-09-30T09:36:40;11.07;;;8.68;;
47089;SDS011;32840;52.516;13.294;2022-09-30T09:39:42;14.88;;;10.93;;
47089;SDS011;32840;52.516;13.294;2022-09-30T09:42:44;10.77;;;8.52;;
47089;SDS011;32840;52.516;13.294;2022-09-30T09:48:43;9.50;;;8.05;;
47089;SDS011;32840;52.516;13.294;2022-09-30T09:51:32;11.05;;;7.60;;
47089;SDS011;32840;52.516;13.294;2022-09-30T09:54:24;11.85;;;8.27;;
47089;SDS011;32840;52.516;13.294;2022-09-30T09:57:15;10.50;;;7.33;;
47089;SDS011;32840;52.516;13.294;2022-09-30T10:00:09;11.43;;;8.38;;
47089;SDS011;32840;52.516;13.294;2022-09-30T10:03:21;8.93;;;7.07;;
47089;SDS011;32840;52.516;13.294;2022-09-30T10:06:09;8.93;;;7.20;;
47089;SDS011;32840;52.516;13.294;2022-09-30T10:08:56;14.15;;;10.75;;
47089;SDS011;32840;52.516;13.294;2022-09-30T10:11:41;9.57;;;6.60;;
47089;SDS011;32840;52.516;13.294;2022-09-30T10:14:26;9.85;;;7.53;;
47089;SDS011;32840;52.516;13.294;2022-09-30T10:17:18;10.60;;;7.45;;
47089;SDS011;32840;52.516;13.294;2022-09-30T10:20:17;11.70;;;8.13;;
47089;SDS011;32840;52.516;13.294;2022-09-30T10:23:21;9.85;;;6.88;;
47089;SDS011;32840;52.516;13.294;2022-09-30T10:28:59;8.90;;;6.70;;
47089;SDS011;32840;52.516;13.294;2022-09-30T10:31:47;9.88;;;6.53;;
47089;SDS011;32840;52.516;13.294;2022-09-30T10:34:37;8.50;;;6.15;;
47089;SDS011;32840;52.516;13.294;2022-09-30T10:37:25;9.10;;;7.70;;
47089;SDS011;32840;52.516;13.294;2022-09-30T10:40:15;9.38;;;6.15;;
47089;SDS011;32840;52.516;13.294;2022-09-30T10:43:02;9.65;;;6.43;;
47089;SDS011;32840;52.516;13.294;2022-09-30T10:45:47;11.70;;;7.93;;
47089;SDS011;32840;52.516;13.294;2022-09-30T10:48:33;13.55;;;8.55;;
47089;SDS011;32840;52.516;13.294;2022-09-30T10:51:22;11.05;;;6.22;;
47089;SDS011;32840;52.516;13.294;2022-09-30T10:54:43;15.30;;;11.75;;
47089;SDS011;32840;52.516;13.294;2022-09-30T10:57:25;10.02;;;7.22;;
47089;SDS011;32840;52.516;13.294;2022-09-30T11:00:19;11.20;;;5.25;;
47089;SDS011;32840;52.516;13.294;2022-09-30T11:03:09;7.30;;;4.85;;
47089;SDS011;32840;52.516;13.294;2022-09-30T11:05:57;6.78;;;4.30;;
47089;SDS011;32840;52.516;13.294;2022-09-30T11:09:28;8.77;;;6.00;;
47089;SDS011;32840;52.516;13.294;2022-09-30T11:12:22;8.45;;;5.10;;
47089;SDS011;32840;52.516;13.294;2022-09-30T11:15:31;5.72;;;4.78;;
47089;SDS011;32840;52.516;13.294;2022-09-30T11:18:34;8.10;;;4.20;;
47089;SDS011;32840;52.516;13.294;2022-09-30T11:21:39;5.57;;;4.13;;
47089;SDS011;32840;52.516;13.294;2022-09-30T11:24:33;7.07;;;3.88;;
47089;SDS011;32840;52.516;13.294;2022-09-30T11:27:46;5.45;;;3.70;;
47089;SDS011;32840;52.516;13.294;2022-09-30T11:30:43;5.75;;;3.22;;
47089;SDS011;32840;52.516;13.294;2022-09-30T11:36:58;6.35;;;2.85;;
47089;SDS011;32840;52.516;13.294;2022-09-30T11:39:52;8.23;;;2.83;;
47089;SDS011;32840;52.516;13.294;2022-09-30T11:46:32;7.43;;;3.90;;
47089;SDS011;32840;52.516;13.294;2022-09-30T11:55:32;7.57;;;3.45;;
47089;SDS011;32840;52.516;13.294;2022-09-30T11:58:30;3.50;;;2.03;;
47089;SDS011;32840;52.516;13.294;2022-09-30T12:04:25;4.43;;;2.50;;
47089;SDS011;32840;52.516;13.294;2022-09-30T12:07:22;11.93;;;2.92;;
47089;SDS011;32840;52.516;13.294;2022-09-30T12:10:22;9.27;;;2.70;;
47089;SDS011;32840;52.516;13.294;2022-09-30T12:13:21;5.30;;;2.53;;
47089;SDS011;32840;52.516;13.294;2022-09-30T12:16:22;7.40;;;3.35;;
47089;SDS011;32840;52.516;13.294;2022-09-30T12:19:20;4.50;;;2.58;;
47089;SDS011;32840;52.516;13.294;2022-09-30T12:22:19;6.70;;;2.50;;
47089;SDS011;32840;52.516;13.294;2022-09-30T12:25:12;7.88;;;3.80;;
47089;SDS011;32840;52.516;13.294;2022-09-30T12:28:22;3.30;;;2.22;;
47089;SDS011;32840;52.516;13.294;2022-09-30T12:34:47;4.85;;;2.33;;
47089;SDS011;32840;52.516;13.294;2022-09-30T12:38:02;6.60;;;3.47;;
47089;SDS011;32840;52.516;13.294;2022-09-30T12:47:13;5.97;;;3.65;;
47089;SDS011;32840;52.516;13.294;2022-09-30T12:50:06;4.60;;;2.95;;
47089;SDS011;32840;52.516;13.294;2022-09-30T12:52:52;4.10;;;2.40;;
47089;SDS011;32840;52.516;13.294;2022-09-30T12:55:38;8.05;;;3.13;;
47089;SDS011;32840;52.516;13.294;2022-09-30T12:58:26;7.43;;;3.42;;
47089;SDS011;32840;52.516;13.294;2022-09-30T13:01:17;7.65;;;4.07;;
47089;SDS011;32840;52.516;13.294;2022-09-30T13:09:54;4.70;;;2.67;;
47089;SDS011;32840;52.516;13.294;2022-09-30T13:13:10;4.47;;;2.42;;
47089;SDS011;32840;52.516;13.294;2022-09-30T13:15:57;5.25;;;2.72;;
47089;SDS011;32840;52.516;13.294;2022-09-30T13:21:34;4.80;;;2.05;;
47089;SDS011;32840;52.516;13.294;2022-09-30T13:24:19;5.32;;;2.72;;
47089;SDS011;32840;52.516;13.294;2022-09-30T13:27:50;10.63;;;2.80;;
47089;SDS011;32840;52.516;13.294;2022-09-30T13:30:38;3.60;;;2.20;;
47089;SDS011;32840;52.516;13.294;2022-09-30T13:33:28;4.63;;;2.70;;
47089;SDS011;32840;52.516;13.294;2022-09-30T13:36:27;4.22;;;1.63;;
47089;SDS011;32840;52.516;13.294;2022-09-30T13:39:20;4.82;;;2.20;;
47089;SDS011;32840;52.516;13.294;2022-09-30T13:42:21;8.88;;;2.72;;
47089;SDS011;32840;52.516;13.294;2022-09-30T13:45:20;4.05;;;2.10;;
47089;SDS011;32840;52.516;13.294;2022-09-30T13:48:17;5.68;;;1.92;;
47089;SDS011;32840;52.516;13.294;2022-09-30T13:51:06;5.85;;;2.28;;
47089;SDS011;32840;52.516;13.294;2022-09-30T13:53:57;5.00;;;2.20;;
47089;SDS011;32840;52.516;13.294;2022-09-30T13:56:47;4.57;;;1.90;;
47089;SDS011;32840;52.516;13.294;2022-09-30T14:09:02;3.22;;;1.52;;
47089;SDS011;32840;52.516;13.294;2022-09-30T14:12:10;4.55;;;1.90;;
47089;SDS011;32840;52.516;13.294;2022-09-30T14:18:09;7.78;;;4.65;;
47089;SDS011;32840;52.516;13.294;2022-09-30T14:23:58;6.55;;;2.67;;
47089;SDS011;32840;52.516;13.294;2022-09-30T14:27:03;3.45;;;2.13;;
47089;SDS011;32840;52.516;13.294;2022-09-30T14:30:04;5.97;;;4.15;;
47089;SDS011;32840;52.516;13.294;2022-09-30T14:32:56;7.53;;;3.72;;
47089;SDS011;32840;52.516;13.294;2022-09-30T14:35:46;5.45;;;2.55;;
47089;SDS011;32840;52.516;13.294;2022-09-30T14:38:32;6.35;;;2.38;;
47089;SDS011;32840;52.516;13.294;2022-09-30T14:41:20;3.05;;;1.90;;
47089;SDS011;32840;52.516;13.294;2022-09-30T14:44:10;2.75;;;1.70;;
47089;SDS011;32840;52.516;13.294;2022-09-30T14:47:00;6.82;;;3.35;;
47089;SDS011;32840;52.516;13.294;2022-09-30T14:49:48;6.35;;;4.10;;
47089;SDS011;32840;52.516;13.294;2022-09-30T14:52:35;3.92;;;1.90;;
47089;SDS011;32840;52.516;13.294;2022-09-30T14:55:25;5.53;;;3.75;;
47089;SDS011;32840;52.516;13.294;2022-09-30T15:01:12;7.45;;;3.15;;
47089;SDS011;32840;52.516;13.294;2022-09-30T15:04:10;3.65;;;1.50;;
47089;SDS011;32840;52.516;13.294;2022-09-30T15:07:02;1.83;;;1.35;;
47089;SDS011;32840;52.516;13.294;2022-09-30T15:09:50;5.10;;;1.95;;
47089;SDS011;32840;52.516;13.294;2022-09-30T15:12:37;8.18;;;2.20;;
47089;SDS011;32840;52.516;13.294;2022-09-30T15:15:31;3.42;;;1.80;;
47089;SDS011;32840;52.516;13.294;2022-09-30T15:18:27;3.92;;;1.73;;
47089;SDS011;32840;52.516;13.294;2022-09-30T15:21:14;5.97;;;2.55;;
47089;SDS011;32840;52.516;13.294;2022-09-30T15:24:00;4.35;;;2.25;;
47089;SDS011;32840;52.516;13.294;2022-09-30T15:26:45;4.57;;;2.47;;
47089;SDS011;32840;52.516;13.294;2022-09-30T15:29:32;4.38;;;1.90;;
47089;SDS011;32840;52.516;13.294;2022-09-30T15:32:19;3.28;;;1.98;;
47089;SDS011;32840;52.516;13.294;2022-09-30T15:35:11;3.10;;;1.80;;
47089;SDS011;32840;52.516;13.294;2022-09-30T15:38:06;5.50;;;2.47;;
47089;SDS011;32840;52.516;13.294;2022-09-30T15:41:05;5.00;;;2.05;;
47089;SDS011;32840;52.516;13.294;2022-09-30T15:43:52;4.38;;;2.58;;
47089;SDS011;32840;52.516;13.294;2022-09-30T15:46:37;3.38;;;1.70;;
47089;SDS011;32840;52.516;13.294;2022-09-30T15:49:31;4.65;;;1.88;;
47089;SDS011;32840;52.516;13.294;2022-09-30T15:52:37;2.58;;;1.40;;
47089;SDS011;32840;52.516;13.294;2022-09-30T15:55:38;5.93;;;1.65;;
47089;SDS011;32840;52.516;13.294;2022-09-30T16:04:22;4.55;;;2.20;;
47089;SDS011;32840;52.516;13.294;2022-09-30T16:07:08;3.80;;;1.92;;
47089;SDS011;32840;52.516;13.294;2022-09-30T16:09:54;6.82;;;3.83;;
47089;SDS011;32840;52.516;13.294;2022-09-30T16:12:42;15.27;;;8.77;;
47089;SDS011;32840;52.516;13.294;2022-09-30T16:15:35;5.20;;;3.40;;
47089;SDS011;32840;52.516;13.294;2022-09-30T16:18:24;6.65;;;3.35;;
47089;SDS011;32840;52.516;13.294;2022-09-30T16:21:26;6.22;;;3.78;;
47089;SDS011;32840;52.516;13.294;2022-09-30T16:27:19;5.40;;;3.03;;
47089;SDS011;32840;52.516;13.294;2022-09-30T16:30:06;4.70;;;3.03;;
47089;SDS011;32840;52.516;13.294;2022-09-30T16:32:56;5.70;;;3.00;;
47089;SDS011;32840;52.516;13.294;2022-09-30T16:35:46;4.70;;;2.90;;
47089;SDS011;32840;52.516;13.294;2022-09-30T16:38:31;4.43;;;3.08;;
47089;SDS011;32840;52.516;13.294;2022-09-30T16:41:16;9.52;;;3.30;;
47089;SDS011;32840;52.516;13.294;2022-09-30T16:44:00;5.75;;;2.92;;
47089;SDS011;32840;52.516;13.294;2022-09-30T16:46:45;5.60;;;3.58;;
47089;SDS011;32840;52.516;13.294;2022-09-30T16:49:30;5.72;;;3.25;;
47089;SDS011;32840;52.516;13.294;2022-09-30T16:52:18;5.78;;;3.08;;
47089;SDS011;32840;52.516;13.294;2022-09-30T16:55:03;6.85;;;3.35;;
47089;SDS011;32840;52.516;13.294;2022-09-30T16:57:47;6.00;;;3.17;;
47089;SDS011;32840;52.516;13.294;2022-09-30T17:00:33;7.43;;;4.57;;
47089;SDS011;32840;52.516;13.294;2022-09-30T17:03:18;6.05;;;4.20;;
47089;SDS011;32840;52.516;13.294;2022-09-30T17:06:05;5.65;;;3.55;;
47089;SDS011;32840;52.516;13.294;2022-09-30T17:08:50;63.47;;;45.92;;
47089;SDS011;32840;52.516;13.294;2022-09-30T17:11:36;13.23;;;6.45;;
47089;SDS011;32840;52.516;13.294;2022-09-30T17:14:21;8.43;;;3.90;;
47089;SDS011;32840;52.516;13.294;2022-09-30T17:17:06;5.68;;;3.47;;
47089;SDS011;32840;52.516;13.294;2022-09-30T17:19:51;7.65;;;3.83;;
47089;SDS011;32840;52.516;13.294;2022-09-30T17:22:36;5.47;;;3.65;;
47089;SDS011;32840;52.516;13.294;2022-09-30T17:25:21;6.32;;;3.95;;
47089;SDS011;32840;52.516;13.294;2022-09-30T17:28:06;7.93;;;4.35;;
47089;SDS011;32840;52.516;13.294;2022-09-30T17:30:53;9.10;;;4.97;;
47089;SDS011;32840;52.516;13.294;2022-09-30T17:33:38;10.00;;;4.80;;
47089;SDS011;32840;52.516;13.294;2022-09-30T17:36:24;10.80;;;5.57;;
47089;SDS011;32840;52.516;13.294;2022-09-30T17:39:08;5.47;;;4.30;;
47089;SDS011;32840;52.516;13.294;2022-09-30T17:41:54;7.13;;;4.80;;
47089;SDS011;32840;52.516;13.294;2022-09-30T17:44:57;8.98;;;4.97;;
47089;SDS011;32840;52.516;13.294;2022-09-30T17:47:42;9.63;;;5.55;;
47089;SDS011;32840;52.516;13.294;2022-09-30T17:50:28;11.30;;;5.22;;
47089;SDS011;32840;52.516;13.294;2022-09-30T17:53:13;10.75;;;5.68;;
47089;SDS011;32840;52.516;13.294;2022-09-30T17:56:05;12.65;;;5.65;;
47089;SDS011;32840;52.516;13.294;2022-09-30T17:58:56;9.45;;;5.70;;
47089;SDS011;32840;52.516;13.294;2022-09-30T18:01:43;8.73;;;5.63;;
47089;SDS011;32840;52.516;13.294;2022-09-30T18:04:28;14.27;;;8.75;;
47089;SDS011;32840;52.516;13.294;2022-09-30T18:07:12;10.90;;;6.47;;
47089;SDS011;32840;52.516;13.294;2022-09-30T18:09:58;8.93;;;5.60;;
47089;SDS011;32840;52.516;13.294;2022-09-30T18:12:42;11.55;;;7.30;;
47089;SDS011;32840;52.516;13.294;2022-09-30T18:15:32;9.10;;;6.65;;
47089;SDS011;32840;52.516;13.294;2022-09-30T18:18:17;9.10;;;5.65;;
47089;SDS011;32840;52.516;13.294;2022-09-30T18:21:01;9.00;;;5.72;;
47089;SDS011;32840;52.516;13.294;2022-09-30T18:23:48;9.40;;;6.00;;
47089;SDS011;32840;52.516;13.294;2022-09-30T18:26:35;11.55;;;6.25;;
47089;SDS011;32840;52.516;13.294;2022-09-30T18:29:20;11.45;;;6.45;;
47089;SDS011;32840;52.516;13.294;2022-09-30T18:32:07;11.05;;;7.40;;
47089;SDS011;32840;52.516;13.294;2022-09-30T18:34:53;10.55;;;7.32;;
47089;SDS011;32840;52.516;13.294;2022-09-30T18:37:39;11.05;;;6.97;;
47089;SDS011;32840;52.516;13.294;2022-09-30T18:40:26;11.65;;;7.93;;
47089;SDS011;32840;52.516;13.294;2022-09-30T18:43:12;13.63;;;7.05;;
47089;SDS011;32840;52.516;13.294;2022-09-30T18:45:57;10.95;;;6.90;;